createdAt,value
2018-08-12T00:01:27.662Z,49.75
2018-08-12T00:03:55.279Z,49.65
2018-08-12T00:06:23.504Z,49.79
2018-08-12T00:08:51.424Z,50.29
2018-08-12T00:11:19.197Z,49.62
2018-08-12T00:13:46.849Z,49.74
2018-08-12T00:16:14.545Z,50.19
2018-08-12T00:18:42.191Z,50.36
2018-08-12T00:21:09.855Z,50.46
2018-08-12T00:23:37.654Z,50.01
2018-08-12T00:26:05.316Z,49.70
2018-08-12T00:28:33.262Z,49.79
2018-08-12T00:31:01.242Z,49.88
2018-08-12T00:33:29.174Z,50.60
2018-08-12T00:35:57.294Z,50.35
2018-08-12T00:38:24.940Z,50.46
2018-08-12T00:40:52.667Z,50.56
2018-08-12T00:43:20.348Z,50.43
2018-08-12T00:45:48.066Z,49.74
2018-08-12T00:48:15.759Z,50.01
2018-08-12T00:50:44.005Z,50.34
2018-08-12T00:53:11.668Z,50.48
2018-08-12T00:55:39.582Z,50.46
2018-08-12T00:58:07.292Z,49.96
2018-08-12T01:00:35.003Z,49.68
2018-08-12T01:03:02.713Z,50.64
2018-08-12T01:05:30.628Z,49.83
2018-08-12T01:07:58.537Z,50.00
2018-08-12T01:10:26.221Z,50.00
2018-08-12T01:12:53.897Z,50.11
2018-08-12T01:15:21.979Z,50.76
2018-08-12T01:17:49.632Z,50.75
2018-08-12T01:20:23.241Z,50.57
2018-08-12T01:22:51.600Z,50.60
2018-08-12T01:25:19.536Z,50.71
2018-08-12T01:27:47.216Z,50.29
2018-08-12T01:30:16.873Z,50.64
2018-08-12T01:32:45.461Z,50.52
2018-08-12T01:35:13.847Z,49.91
2018-08-12T01:37:42.351Z,50.65
2018-08-12T01:40:11.664Z,50.54
2018-08-12T01:42:40.262Z,50.77
2018-08-12T01:45:09.220Z,50.20
2018-08-12T01:47:36.875Z,50.18
2018-08-12T01:50:05.544Z,50.53
2018-08-12T01:52:33.370Z,50.15
2018-08-12T01:55:01.029Z,50.20
2018-08-12T01:57:28.689Z,50.82
2018-08-12T01:59:56.689Z,50.75
2018-08-12T02:02:25.241Z,50.12
2018-08-12T02:04:52.897Z,50.24
2018-08-12T02:07:21.184Z,50.44
2018-08-12T02:09:48.813Z,50.66
2018-08-12T02:12:16.722Z,50.80
2018-08-12T02:14:44.850Z,50.82
2018-08-12T02:17:12.557Z,50.80
2018-08-12T02:19:40.860Z,50.24
2018-08-12T02:22:09.318Z,50.77
2018-08-12T02:24:37.581Z,50.83
2018-08-12T02:27:05.256Z,50.22
2018-08-12T02:29:33.516Z,50.87
2018-08-12T02:32:01.237Z,50.62
2018-08-12T02:34:28.944Z,50.41
2018-08-12T02:36:56.889Z,50.97
2018-08-12T02:39:25.145Z,50.65
2018-08-12T02:41:53.083Z,50.90
2018-08-12T02:44:21.324Z,50.12
2018-08-12T02:46:49.654Z,50.31
2018-08-12T02:49:17.718Z,50.41
2018-08-12T02:51:45.377Z,50.26
2018-08-12T02:54:13.039Z,50.17
2018-08-12T02:56:41.041Z,50.56
2018-08-12T02:59:08.977Z,50.20
2018-08-12T03:01:37.095Z,50.75
2018-08-12T03:04:05.038Z,50.74
2018-08-12T03:06:32.707Z,50.49
2018-08-12T03:09:00.373Z,50.36
2018-08-12T03:11:28.337Z,50.26
2018-08-12T03:13:56.294Z,50.26
2018-08-12T03:16:23.968Z,50.46
2018-08-12T03:18:51.718Z,50.95
2018-08-12T03:21:19.697Z,50.65
2018-08-12T03:23:47.330Z,51.00
2018-08-12T03:26:14.994Z,51.04
2018-08-12T03:28:42.650Z,51.03
2018-08-12T03:31:10.385Z,50.23
2018-08-12T03:33:38.094Z,50.25
2018-08-12T03:36:05.791Z,50.77
2018-08-12T03:38:33.521Z,50.22
2018-08-12T03:41:01.205Z,50.82
2018-08-12T03:43:28.877Z,51.04
2018-08-12T03:45:56.550Z,51.05
2018-08-12T03:48:24.176Z,50.88
2018-08-12T03:50:52.473Z,51.04
2018-08-12T03:53:20.150Z,50.33
2018-08-12T03:55:48.383Z,50.64
2018-08-12T03:58:16.095Z,50.23
2018-08-12T04:00:43.737Z,50.85
2018-08-12T04:03:11.477Z,51.04
2018-08-12T04:05:39.669Z,50.89
2018-08-12T04:08:07.613Z,50.30
2018-08-12T04:10:35.239Z,50.22
2018-08-12T04:13:03.138Z,50.19
2018-08-12T04:15:30.784Z,50.75
2018-08-12T04:17:59.125Z,50.21
2018-08-12T04:20:26.780Z,50.31
2018-08-12T04:22:54.409Z,50.43
2018-08-12T04:25:22.082Z,50.10
2018-08-12T04:27:50.631Z,50.34
2018-08-12T04:30:18.344Z,50.28
2018-08-12T04:32:46.269Z,50.30
2018-08-12T04:35:14.031Z,50.32
2018-08-12T04:37:42.306Z,50.86
2018-08-12T04:40:10.062Z,50.23
2018-08-12T04:42:37.810Z,50.55
2018-08-12T04:45:05.620Z,50.70
2018-08-12T04:47:33.339Z,50.41
2018-08-12T04:50:01.007Z,50.78
2018-08-12T04:52:28.663Z,50.11
2018-08-12T04:54:57.281Z,50.53
2018-08-12T04:57:24.923Z,50.50
2018-08-12T04:59:52.658Z,50.65
2018-08-12T05:02:20.997Z,50.15
2018-08-12T05:04:48.929Z,50.38
2018-08-12T05:07:16.936Z,50.03
2018-08-12T05:09:44.625Z,50.14
2018-08-12T05:12:12.280Z,50.19
2018-08-12T05:14:39.994Z,50.01
2018-08-12T05:17:07.969Z,50.02
2018-08-12T05:19:35.661Z,50.12
2018-08-12T05:22:03.318Z,50.10
2018-08-12T05:24:31.009Z,49.98
2018-08-12T05:26:58.677Z,50.15
2018-08-12T05:29:26.412Z,50.53
2018-08-12T05:31:54.106Z,50.25
2018-08-12T05:34:21.748Z,50.01
2018-08-12T05:36:49.426Z,49.70
2018-08-12T05:39:17.129Z,50.05
2018-08-12T05:41:44.819Z,49.68
2018-08-12T05:44:12.704Z,50.21
2018-08-12T05:46:40.728Z,50.27
2018-08-12T05:49:08.407Z,50.25
2018-08-12T05:51:36.190Z,49.87
2018-08-12T05:54:03.773Z,49.96
2018-08-12T05:56:31.441Z,50.09
2018-08-12T05:58:59.480Z,49.41
2018-08-12T06:01:27.163Z,49.34
2018-08-12T06:03:55.176Z,50.03
2018-08-12T06:06:22.794Z,49.19
2018-08-12T06:08:50.761Z,49.20
2018-08-12T06:11:18.545Z,49.90
2018-08-12T06:13:46.789Z,49.79
2018-08-12T06:16:14.484Z,49.21
2018-08-12T06:18:42.152Z,49.69
2018-08-12T06:21:10.088Z,49.42
2018-08-12T06:23:37.847Z,49.62
2018-08-12T06:26:05.667Z,49.63
2018-08-12T06:28:33.470Z,49.25
2018-08-12T06:31:01.368Z,49.65
2018-08-12T06:33:29.003Z,49.02
2018-08-12T06:35:56.712Z,49.36
2018-08-12T06:38:24.390Z,49.35
2018-08-12T06:40:52.093Z,49.74
2018-08-12T06:43:19.785Z,49.11
2018-08-12T06:45:47.479Z,48.98
2018-08-12T06:48:15.218Z,49.49
2018-08-12T06:50:42.972Z,49.42
2018-08-12T06:53:10.717Z,48.95
2018-08-12T06:55:38.998Z,48.79
2018-08-12T06:58:06.693Z,48.85
2018-08-12T07:00:34.417Z,48.83
2018-08-12T07:03:02.080Z,49.42
2018-08-12T07:05:29.788Z,48.74
2018-08-12T07:07:58.090Z,49.23
2018-08-12T07:10:26.087Z,48.68
2018-08-12T07:12:53.822Z,48.41
2018-08-12T07:15:21.507Z,49.10
2018-08-12T07:17:49.198Z,48.34
2018-08-12T07:20:16.937Z,48.36
2018-08-12T07:22:44.628Z,48.19
2018-08-12T07:25:14.060Z,48.41
2018-08-12T07:27:42.653Z,47.97
2018-08-12T07:30:13.009Z,48.22
2018-08-12T07:32:40.721Z,47.80
2018-08-12T07:35:09.418Z,48.48
2018-08-12T07:37:37.375Z,48.50
2018-08-12T07:40:07.753Z,47.56
2018-08-12T07:42:35.517Z,47.71
2018-08-12T07:45:03.452Z,48.03
2018-08-12T07:47:31.140Z,47.87
2018-08-12T07:49:58.831Z,48.30
2018-08-12T07:52:26.874Z,47.71
2018-08-12T07:54:54.523Z,48.45
2018-08-12T07:57:22.218Z,47.83
2018-08-12T07:59:49.919Z,47.67
2018-08-12T08:02:17.584Z,47.61
2018-08-12T08:04:45.379Z,48.40
2018-08-12T08:07:13.361Z,47.54
2018-08-12T08:09:41.354Z,47.61
2018-08-12T08:12:09.367Z,48.06
2018-08-12T08:14:37.118Z,47.27
2018-08-12T08:17:05.430Z,47.09
2018-08-12T08:19:33.491Z,47.91
2018-08-12T08:22:01.191Z,47.52
2018-08-12T08:24:28.805Z,47.20
2018-08-12T08:26:56.464Z,47.51
2018-08-12T08:29:24.195Z,47.07
2018-08-12T08:31:52.422Z,47.55
2018-08-12T08:34:20.161Z,47.68
2018-08-12T08:36:47.861Z,47.03
2018-08-12T08:39:15.528Z,46.86
2018-08-12T08:41:43.661Z,47.68
2018-08-12T08:44:11.681Z,47.81
2018-08-12T08:46:39.821Z,46.95
2018-08-12T08:49:07.553Z,47.00
2018-08-12T08:51:35.519Z,47.41
2018-08-12T08:54:03.505Z,46.79
2018-08-12T08:56:31.192Z,47.28
2018-08-12T08:58:58.863Z,47.33
2018-08-12T09:01:27.655Z,47.03
2018-08-12T09:03:55.637Z,46.55
2018-08-12T09:06:23.363Z,46.57
2018-08-12T09:08:51.882Z,46.19
2018-08-12T09:11:19.671Z,46.86
2018-08-12T09:13:47.466Z,46.69
2018-08-12T09:16:15.148Z,46.91
2018-08-12T09:18:43.195Z,46.06
2018-08-12T09:21:10.884Z,46.12
2018-08-12T09:23:38.619Z,46.50
2018-08-12T09:26:06.301Z,45.69
2018-08-12T09:28:34.063Z,45.64
2018-08-12T09:31:01.769Z,46.09
2018-08-12T09:33:29.818Z,45.51
2018-08-12T09:35:57.497Z,46.33
2018-08-12T09:38:25.448Z,45.68
2018-08-12T09:40:53.132Z,46.15
2018-08-12T09:43:20.865Z,45.96
2018-08-12T09:45:48.814Z,45.35
2018-08-12T09:48:16.610Z,45.54
2018-08-12T09:50:44.681Z,46.03
2018-08-12T09:53:12.353Z,45.88
2018-08-12T09:55:40.065Z,45.37
2018-08-12T09:58:07.795Z,46.11
2018-08-12T10:00:39.098Z,45.77
2018-08-12T10:03:08.019Z,45.76
2018-08-12T10:05:36.024Z,45.72
2018-08-12T10:08:04.079Z,46.05
2018-08-12T10:10:31.765Z,45.72
2018-08-12T10:12:59.599Z,46.31
2018-08-12T10:15:27.386Z,46.26
2018-08-12T10:17:57.093Z,46.24
2018-08-12T10:20:24.885Z,45.70
2018-08-12T10:22:53.045Z,46.08
2018-08-12T10:25:21.022Z,46.33
2018-08-12T10:27:49.430Z,46.75
2018-08-12T10:30:17.159Z,46.71
2018-08-12T10:32:45.002Z,46.42
2018-08-12T10:35:14.041Z,46.28
2018-08-12T10:37:42.524Z,46.15
2018-08-12T10:40:12.959Z,45.79
2018-08-12T10:42:40.783Z,46.27
2018-08-12T10:45:09.976Z,45.98
2018-08-12T10:47:38.551Z,45.43
2018-08-12T10:50:09.170Z,45.93
2018-08-12T10:52:37.111Z,46.22
2018-08-12T10:55:05.250Z,46.25
2018-08-12T10:57:33.599Z,46.04
2018-08-12T11:00:01.794Z,46.49
2018-08-12T11:02:29.562Z,45.85
2018-08-12T11:04:57.458Z,46.49
2018-08-12T11:07:25.413Z,45.78
2018-08-12T11:09:53.494Z,45.51
2018-08-12T11:12:21.306Z,45.28
2018-08-12T11:14:49.288Z,45.65
2018-08-12T11:17:17.279Z,46.10
2018-08-12T11:19:45.001Z,45.31
2018-08-12T11:22:12.747Z,45.32
2018-08-12T11:24:40.464Z,46.03
2018-08-12T11:27:08.250Z,46.00
2018-08-12T11:29:36.353Z,45.91
2018-08-12T11:32:04.337Z,45.55
2018-08-12T11:34:32.057Z,45.84
2018-08-12T11:37:00.022Z,46.22
2018-08-12T11:39:28.218Z,45.90
2018-08-12T11:41:55.893Z,46.28
2018-08-12T11:44:23.600Z,45.79
2018-08-12T11:46:51.289Z,45.59
2018-08-12T11:49:19.403Z,46.49
2018-08-12T11:51:47.415Z,45.64
2018-08-12T11:54:15.313Z,45.63
2018-08-12T11:56:43.063Z,46.00
2018-08-12T11:59:10.765Z,46.03
2018-08-12T12:01:39.470Z,45.83
2018-08-12T12:04:07.390Z,45.88
2018-08-12T12:06:35.166Z,46.82
2018-08-12T12:09:03.337Z,46.00
2018-08-12T12:11:31.017Z,46.16
2018-08-12T12:13:58.704Z,46.35
2018-08-12T12:16:26.393Z,46.41
2018-08-12T12:18:54.141Z,45.67
2018-08-12T12:21:21.857Z,46.49
2018-08-12T12:23:49.959Z,46.12
2018-08-12T12:26:17.618Z,46.46
2018-08-12T12:28:45.361Z,45.97
2018-08-12T12:31:13.377Z,46.63
2018-08-12T12:33:41.363Z,45.97
2018-08-12T12:36:09.094Z,46.09
2018-08-12T12:38:37.083Z,46.62
2018-08-12T12:41:05.085Z,46.06
2018-08-12T12:43:33.036Z,46.02
2018-08-12T12:46:00.733Z,46.93
2018-08-12T12:48:28.795Z,46.18
2018-08-12T12:50:56.482Z,46.95
2018-08-12T12:53:24.763Z,46.40
2018-08-12T12:55:53.070Z,46.84
2018-08-12T12:58:20.761Z,46.27
2018-08-12T13:00:48.729Z,46.25
2018-08-12T13:03:16.696Z,46.77
2018-08-12T13:05:44.438Z,46.66
2018-08-12T13:08:12.204Z,45.79
2018-08-12T13:10:40.208Z,46.31
2018-08-12T13:13:07.880Z,46.04
2018-08-12T13:15:35.606Z,45.95
2018-08-12T13:18:03.628Z,46.18
2018-08-12T13:20:31.545Z,46.24
2018-08-12T13:22:59.204Z,45.48
2018-08-12T13:25:27.017Z,45.66
2018-08-12T13:27:54.714Z,45.51
2018-08-12T13:30:22.575Z,45.74
2018-08-12T13:32:50.777Z,46.01
2018-08-12T13:35:18.504Z,46.33
2018-08-12T13:37:46.282Z,46.50
2018-08-12T13:40:15.647Z,46.54
2018-08-12T13:42:44.522Z,46.59
2018-08-12T13:45:12.941Z,45.94
2018-08-12T13:47:41.874Z,45.80
2018-08-12T13:50:18.949Z,45.93
2018-08-12T13:52:47.473Z,45.91
2018-08-12T13:55:15.725Z,45.95
2018-08-12T13:57:43.722Z,46.06
2018-08-12T14:00:14.712Z,46.27
2018-08-12T14:02:42.926Z,46.44
2018-08-12T14:05:11.906Z,46.93
2018-08-12T14:07:39.897Z,46.26
2018-08-12T14:10:09.790Z,45.94
2018-08-12T14:12:37.713Z,46.64
2018-08-12T14:15:08.658Z,46.82
2018-08-12T14:17:36.305Z,46.34
2018-08-12T14:20:04.585Z,46.46
2018-08-12T14:22:32.472Z,46.26
2018-08-12T14:25:00.529Z,47.14
2018-08-12T14:27:28.701Z,46.33
2018-08-12T14:29:56.459Z,46.68
2018-08-12T14:32:24.345Z,46.97
2018-08-12T14:34:52.152Z,47.01
2018-08-12T14:37:19.895Z,45.99
2018-08-12T14:39:47.666Z,46.71
2018-08-12T14:42:15.360Z,45.68
2018-08-12T14:44:43.190Z,46.22
2018-08-12T14:47:10.869Z,46.74
2018-08-12T14:49:38.610Z,45.78
2018-08-12T14:52:06.835Z,45.88
2018-08-12T14:54:34.561Z,45.44
2018-08-12T14:57:02.216Z,45.23
2018-08-12T14:59:30.170Z,44.83
2018-08-12T15:01:57.867Z,45.08
2018-08-12T15:04:25.625Z,44.70
2018-08-12T15:06:53.344Z,44.76
2018-08-12T15:09:21.378Z,45.50
2018-08-12T15:11:49.100Z,44.56
2018-08-12T15:14:16.819Z,44.45
2018-08-12T15:16:44.497Z,44.77
2018-08-12T15:19:12.207Z,45.36
2018-08-12T15:21:39.916Z,45.44
2018-08-12T15:24:07.591Z,45.53
2018-08-12T15:26:35.284Z,45.73
2018-08-12T15:29:03.220Z,45.98
2018-08-12T15:31:30.971Z,45.51
2018-08-12T15:33:58.693Z,45.81
2018-08-12T15:36:26.449Z,45.27
2018-08-12T15:38:54.294Z,45.75
2018-08-12T15:41:22.163Z,45.69
2018-08-12T15:43:50.128Z,46.21
2018-08-12T15:46:18.086Z,45.24
2018-08-12T15:48:46.089Z,45.65
2018-08-12T15:51:13.958Z,44.84
2018-08-12T15:53:42.013Z,44.92
2018-08-12T15:56:10.012Z,44.87
2018-08-12T15:58:38.341Z,45.20
2018-08-12T16:01:06.339Z,45.04
2018-08-12T16:03:35.640Z,44.76
2018-08-12T16:06:03.285Z,44.72
2018-08-12T16:08:31.507Z,44.54
2018-08-12T16:10:59.569Z,45.03
2018-08-12T16:13:27.479Z,44.83
2018-08-12T16:15:55.816Z,45.31
2018-08-12T16:18:23.493Z,44.81
2018-08-12T16:20:51.161Z,44.83
2018-08-12T16:23:19.177Z,45.89
2018-08-12T16:25:47.089Z,44.56
2018-08-12T16:28:15.063Z,44.86
2018-08-12T16:30:42.745Z,44.44
2018-08-12T16:33:10.823Z,44.87
2018-08-12T16:35:38.658Z,45.78
2018-08-12T16:38:06.311Z,44.85
2018-08-12T16:40:34.402Z,45.64
2018-08-12T16:43:02.457Z,45.78
2018-08-12T16:45:30.130Z,45.55
2018-08-12T16:47:58.228Z,44.85
2018-08-12T16:50:26.298Z,44.88
2018-08-12T16:52:54.048Z,45.18
2018-08-12T16:55:21.840Z,45.06
2018-08-12T16:57:49.514Z,44.75
2018-08-12T17:00:19.040Z,44.92
2018-08-12T17:02:47.355Z,44.95
2018-08-12T17:05:20.354Z,44.90
2018-08-12T17:07:48.506Z,44.88
2018-08-12T17:10:17.323Z,45.08
2018-08-12T17:12:45.409Z,44.85
2018-08-12T17:15:15.394Z,45.56
2018-08-12T17:17:43.626Z,45.26
2018-08-12T17:20:13.752Z,45.31
2018-08-12T17:22:42.509Z,45.18
2018-08-12T17:25:10.258Z,45.46
2018-08-12T17:27:37.978Z,46.04
2018-08-12T17:30:07.257Z,45.73
2018-08-12T17:32:35.145Z,45.53
2018-08-12T17:35:02.849Z,45.87
2018-08-12T17:37:31.241Z,45.80
2018-08-12T17:39:59.334Z,45.71
2018-08-12T17:42:27.051Z,45.68
2018-08-12T17:44:54.719Z,46.40
2018-08-12T17:47:22.471Z,45.96
2018-08-12T17:49:50.209Z,45.93
2018-08-12T17:52:18.234Z,46.40
2018-08-12T17:54:45.986Z,46.93
2018-08-12T17:57:14.132Z,46.19
2018-08-12T17:59:41.848Z,46.17
2018-08-12T18:02:09.572Z,46.41
2018-08-12T18:04:37.500Z,47.23
2018-08-12T18:07:05.236Z,46.53
2018-08-12T18:09:33.378Z,46.52
2018-08-12T18:12:01.694Z,47.31
2018-08-12T18:14:29.649Z,46.50
2018-08-12T18:16:57.554Z,46.36
2018-08-12T18:19:25.317Z,47.40
2018-08-12T18:21:53.026Z,46.50
2018-08-12T18:24:20.728Z,47.14
2018-08-12T18:26:48.737Z,47.15
2018-08-12T18:29:16.474Z,46.92
2018-08-12T18:31:45.072Z,46.53
2018-08-12T18:34:12.741Z,46.66
2018-08-12T18:36:40.405Z,46.86
2018-08-12T18:39:11.184Z,46.82
2018-08-12T18:41:38.896Z,46.96
2018-08-12T18:44:07.290Z,46.68
2018-08-12T18:46:34.966Z,47.11
2018-08-12T18:49:02.828Z,47.43
2018-08-12T18:51:30.961Z,46.67
2018-08-12T18:53:58.721Z,47.71
2018-08-12T18:56:26.433Z,47.11
2018-08-12T18:58:54.454Z,47.29
2018-08-12T19:01:22.321Z,47.54
2018-08-12T19:03:49.973Z,47.30
2018-08-12T19:06:17.800Z,47.21
2018-08-12T19:08:45.508Z,47.07
2018-08-12T19:11:13.631Z,47.26
2018-08-12T19:13:42.157Z,47.51
2018-08-12T19:16:10.287Z,47.85
2018-08-12T19:18:38.258Z,47.24
2018-08-12T19:21:06.045Z,47.54
2018-08-12T19:23:34.198Z,47.50
2018-08-12T19:26:01.920Z,47.38
2018-08-12T19:28:30.583Z,47.32
2018-08-12T19:30:58.265Z,47.54
2018-08-12T19:33:26.020Z,48.06
2018-08-12T19:35:54.046Z,47.80
2018-08-12T19:38:21.782Z,47.45
2018-08-12T19:40:49.787Z,47.66
2018-08-12T19:43:17.509Z,47.53
2018-08-12T19:45:45.553Z,47.48
2018-08-12T19:48:13.878Z,47.45
2018-08-12T19:50:41.694Z,48.21
2018-08-12T19:53:09.721Z,48.25
2018-08-12T19:55:37.781Z,47.49
2018-08-12T19:58:05.523Z,47.38
2018-08-12T20:00:33.533Z,47.70
2018-08-12T20:03:01.486Z,48.16
2018-08-12T20:05:29.190Z,47.89
2018-08-12T20:07:56.946Z,48.11
2018-08-12T20:10:24.655Z,48.19
2018-08-12T20:12:52.363Z,47.56
2018-08-12T20:15:20.163Z,48.10
2018-08-12T20:17:47.835Z,47.56
2018-08-12T20:20:16.088Z,47.99
2018-08-12T20:22:43.865Z,47.73
2018-08-12T20:25:11.554Z,47.75
2018-08-12T20:27:39.270Z,48.38
2018-08-12T20:30:09.171Z,47.64
2018-08-12T20:32:36.879Z,47.57
2018-08-12T20:35:05.246Z,48.46
2018-08-12T20:40:00.309Z,47.57
2018-08-12T20:42:28.316Z,48.46
2018-08-12T20:44:56.009Z,47.71
2018-08-12T20:47:23.809Z,47.68
2018-08-12T20:49:52.298Z,48.39
2018-08-12T20:52:20.287Z,48.38
2018-08-12T20:54:48.824Z,48.29
2018-08-12T20:57:16.562Z,48.41
2018-08-12T20:59:44.559Z,47.64
2018-08-12T21:02:12.272Z,48.33
2018-08-12T21:04:39.950Z,47.84
2018-08-12T21:07:08.044Z,48.21
2018-08-12T21:09:36.237Z,47.75
2018-08-12T21:12:04.087Z,47.87
2018-08-12T21:14:31.730Z,48.04
2018-08-12T21:16:59.499Z,47.98
2018-08-12T21:19:27.849Z,48.23
2018-08-12T21:21:56.332Z,48.69
2018-08-12T21:24:24.068Z,47.86
2018-08-12T21:26:51.813Z,48.60
2018-08-12T21:29:19.476Z,48.19
2018-08-12T21:31:47.492Z,48.34
2018-08-12T21:34:15.178Z,48.21
2018-08-12T21:36:43.296Z,48.22
2018-08-12T21:39:12.803Z,48.44
2018-08-12T21:41:40.547Z,48.70
2018-08-12T21:44:08.313Z,48.79
2018-08-12T21:46:36.659Z,48.01
2018-08-12T21:49:04.908Z,48.77
2018-08-12T21:51:32.601Z,48.12
2018-08-12T21:54:00.564Z,48.26
2018-08-12T21:56:28.349Z,48.62
2018-08-12T21:58:56.953Z,48.77
2018-08-12T22:01:24.636Z,48.09
2018-08-12T22:03:53.588Z,47.87
2018-08-12T22:06:21.316Z,48.42
2018-08-12T22:08:49.346Z,48.69
2018-08-12T22:11:17.406Z,47.92
2018-08-12T22:13:45.524Z,48.61
2018-08-12T22:16:13.373Z,48.58
2018-08-12T22:18:41.147Z,48.73
2018-08-12T22:21:09.093Z,48.74
2018-08-12T22:23:37.295Z,48.39
2018-08-12T22:26:05.082Z,48.28
2018-08-12T22:28:32.821Z,48.14
2018-08-12T22:31:00.589Z,48.76
2018-08-12T22:33:28.569Z,48.11
2018-08-12T22:35:56.589Z,48.84
2018-08-12T22:38:24.321Z,48.75
2018-08-12T22:40:52.060Z,48.89
2018-08-12T22:43:19.843Z,48.11
2018-08-12T22:45:47.521Z,48.68
2018-08-12T22:48:15.520Z,48.07
2018-08-12T22:50:43.297Z,48.24
2018-08-12T22:53:11.310Z,49.02
2018-08-12T22:55:39.027Z,48.84
2018-08-12T22:58:06.799Z,48.43
2018-08-12T23:00:34.569Z,48.79
2018-08-12T23:03:02.281Z,48.90
2018-08-12T23:05:30.015Z,48.71
2018-08-12T23:08:02.712Z,48.63
2018-08-12T23:10:30.412Z,48.39
2018-08-12T23:12:58.102Z,48.92
2018-08-12T23:16:37.756Z,48.27
2018-08-12T23:19:05.453Z,49.08
2018-08-12T23:21:33.428Z,49.04
2018-08-12T23:24:01.164Z,49.01
2018-08-12T23:26:29.084Z,48.90
2018-08-12T23:28:57.190Z,48.79
2018-08-12T23:31:24.935Z,48.90
2018-08-12T23:33:53.686Z,48.74
2018-08-12T23:36:21.392Z,48.20
2018-08-12T23:38:49.164Z,48.96
2018-08-12T23:41:17.217Z,49.12
2018-08-12T23:43:45.016Z,49.11
2018-08-12T23:46:12.946Z,48.45
2018-08-12T23:48:40.686Z,48.66
2018-08-12T23:51:08.825Z,48.50
2018-08-12T23:53:36.647Z,48.50
2018-08-12T23:56:04.576Z,48.41
2018-08-12T23:58:32.319Z,48.44
